Mason City, Washington
Current Conditions -  °F | °C
As of 6:53 PM on Friday 19 Dec 2014 (Local Time) from KOMK Reporting Station
Overcast Overcast  
Wind Chill: 37°   Ceiling: 1800
Heat Index: 37°   Visibility: 10mi
Dew Point: 34°   Wind: 3mph
Humidity: 89%   Direction: 160°SSE
Pressure: 29.98"   Gusts: NA
Location:  48.2566°N, 119.238°W
Report Text: KOMK 200253Z AUTO 16003KT 10SM BKN018 OVC024 03/01 A2998 RMK AO2 SLP166 T00280011 50009
Loading
Personal Weather Stations






























Interactive Weather Map New forecast layout! Learn more

10-Day Weather Forecast

Advertisements
Track Severe Weather on mobile